New Burlingtn, Indiana
Current Conditions -  °F | °C
As of 2:53 PM on Sunday 21 Dec 2014 (Local Time) from KMIE Reporting Station
Haze Haze  
Wind Chill: 29°   Ceiling: Unl
Heat Index: 36°   Visibility: 6mi
Dew Point: 27°   Wind: 9mph
Humidity: 70%   Direction: 140°SE
Pressure: 30.17"   Gusts: NA
Location:  40.1286°N, 85.3767°W
Report Text: KMIE 211953Z 14008KT 6SM HZ CLR 02/M03 A3017 RMK AO2 SLP224 T00221028
Loading
Personal Weather Stations






























Interactive Weather Map New forecast layout! Learn more

10-Day Weather Forecast

Advertisements
Track Severe Weather on mobile